createdAt,value
2019-05-22T00:01:10.833Z,16.9
2019-05-22T00:06:15.801Z,17
2019-05-22T00:11:25.798Z,16.9
2019-05-22T00:16:35.791Z,16.6
2019-05-22T00:21:40.772Z,16.5
2019-05-22T00:26:45.800Z,16.5
2019-05-22T00:31:50.756Z,16.5
2019-05-22T00:41:51.233Z,16.4
2019-05-22T00:46:56.012Z,16.3
2019-05-22T00:52:01.036Z,16.3
2019-05-22T00:57:11.019Z,16.5
2019-05-22T01:02:20.990Z,16.5
2019-05-22T01:07:26.037Z,16.6
2019-05-22T01:12:31.015Z,16.3
2019-05-22T01:17:36.023Z,16.2
2019-05-22T01:22:41.021Z,16.1
2019-05-22T01:27:50.994Z,15.9
2019-05-22T01:33:01.011Z,16.1
2019-05-22T01:38:05.969Z,16.2
2019-05-22T01:43:10.999Z,16.1
2019-05-22T01:48:16.029Z,15.9
2019-05-22T01:58:16.101Z,15.8
2019-05-22T02:03:21.333Z,15.9
2019-05-22T02:08:26.116Z,16
2019-05-22T02:13:36.219Z,15.8
2019-05-22T02:18:46.147Z,15.8
2019-05-22T02:23:51.121Z,15.7
2019-05-22T02:28:56.142Z,15.7
2019-05-22T02:34:01.157Z,15.5
2019-05-22T02:44:01.234Z,15.5
2019-05-22T02:49:06.295Z,15.6
2019-05-22T02:54:11.359Z,15.5
2019-05-22T02:59:21.380Z,15.6
2019-05-22T03:04:31.337Z,15.7
2019-05-22T03:09:36.348Z,15.6
2019-05-22T03:14:41.325Z,15.4
2019-05-22T03:19:46.337Z,15.4
2019-05-22T03:24:51.291Z,15.4
2019-05-22T03:30:11.275Z,15.5
2019-05-22T03:35:26.306Z,15.5
2019-05-22T03:40:36.272Z,15.4
2019-05-22T03:45:46.248Z,15.4
2019-05-22T03:50:51.252Z,15.5
2019-05-22T03:55:56.269Z,15.4
2019-05-22T04:01:01.278Z,15
2019-05-22T04:06:06.255Z,14.7
2019-05-22T04:11:16.488Z,14.7
2019-05-22T04:16:26.291Z,14.7
2019-05-22T04:21:31.241Z,14.7
2019-05-22T04:26:36.254Z,14.9
2019-05-22T04:31:41.294Z,14.7
2019-05-22T04:36:46.218Z,14.6
2019-05-22T04:41:56.286Z,14.5
2019-05-22T04:47:06.249Z,14.6
2019-05-22T04:52:11.222Z,14.7
2019-05-22T04:57:16.227Z,14.5
2019-05-22T05:02:21.228Z,14.5
2019-05-22T05:07:26.215Z,14.6
2019-05-22T05:12:36.251Z,14.4
2019-05-22T05:17:46.228Z,14.3
2019-05-22T05:22:51.221Z,14.3
2019-05-22T05:27:56.197Z,14.2
2019-05-22T05:33:01.262Z,14.3
2019-05-22T05:38:06.217Z,14.3
2019-05-22T05:43:16.533Z,14.2
2019-05-22T05:48:26.244Z,14.2
2019-05-22T05:53:31.229Z,14.2
2019-05-22T05:58:36.186Z,14.2
2019-05-22T06:03:41.161Z,14.1
2019-05-22T06:13:41.411Z,14.4
2019-05-22T06:18:46.555Z,14.2
2019-05-22T06:23:51.457Z,14.3
2019-05-22T06:29:01.505Z,14.1
2019-05-22T06:34:11.735Z,14
2019-05-22T06:44:11.449Z,14.1
2019-05-22T06:49:16.484Z,14.1
2019-05-22T06:54:21.521Z,14.3
2019-05-22T06:59:31.474Z,14.2
2019-05-22T07:04:41.461Z,14
2019-05-22T07:09:46.517Z,14.2
2019-05-22T07:14:51.526Z,14.1
2019-05-22T07:19:56.443Z,14.2
2019-05-22T07:25:01.466Z,14.3
2019-05-22T07:30:11.503Z,14.2
2019-05-22T07:35:21.418Z,14.4
2019-05-22T07:40:26.538Z,14.4
2019-05-22T07:45:31.454Z,14.4
2019-05-22T07:50:36.567Z,14.2
2019-05-22T07:55:41.493Z,14.2
2019-05-22T08:00:51.508Z,14.1
2019-05-22T08:06:01.597Z,14.3
2019-05-22T08:11:06.475Z,14.3
2019-05-22T08:16:11.459Z,14.1
2019-05-22T08:26:11.892Z,14.3
2019-05-22T08:31:16.679Z,14.3
2019-05-22T08:36:21.695Z,14.2
2019-05-22T08:41:31.763Z,14.4
2019-05-22T08:46:41.634Z,14.3
2019-05-22T08:51:46.749Z,13.9
2019-05-22T08:56:51.646Z,13.9
2019-05-22T09:01:56.679Z,14
2019-05-22T09:07:01.996Z,14.2
2019-05-22T09:12:11.673Z,14.3
2019-05-22T09:17:21.638Z,14.2
2019-05-22T09:22:39.331Z,14.2
2019-05-22T09:23:33.941Z,14.2
2019-05-22T09:27:31.640Z,14.3
2019-05-22T09:32:36.638Z,14.3
2019-05-22T09:37:41.620Z,14.7
2019-05-22T09:42:51.641Z,14.5
2019-05-22T09:48:01.837Z,14.6
2019-05-22T09:53:06.657Z,14.8
2019-05-22T09:58:11.655Z,14.8
2019-05-22T10:08:11.800Z,14.8
2019-05-22T10:13:16.744Z,15
2019-05-22T10:18:21.724Z,15
2019-05-22T10:23:31.849Z,14.7
2019-05-22T10:28:41.751Z,14.6
2019-05-22T10:33:46.758Z,14.8
2019-05-22T10:38:51.791Z,14.6
2019-05-22T10:43:56.774Z,14.7
2019-05-22T10:49:01.715Z,14.6
2019-05-22T10:54:12.030Z,14.6
2019-05-22T10:59:21.712Z,14.4
2019-05-22T11:04:26.719Z,14.4
2019-05-22T11:09:31.707Z,14.4
2019-05-22T11:14:36.707Z,14.6
2019-05-22T11:24:36.933Z,15
2019-05-22T11:29:41.991Z,15
2019-05-22T11:34:47.024Z,14.9
2019-05-22T11:39:56.985Z,14.9
2019-05-22T11:45:06.967Z,14.7
2019-05-22T11:50:11.967Z,14.5
2019-05-22T11:55:16.916Z,14.3
2019-05-22T12:00:21.944Z,14.3
2019-05-22T12:05:26.935Z,14.1
2019-05-22T12:10:36.934Z,14.1
2019-05-22T12:15:46.929Z,14.1
2019-05-22T12:20:51.955Z,14.2
2019-05-22T12:25:56.950Z,14.4
2019-05-22T12:31:01.925Z,14.4
2019-05-22T12:41:02.314Z,14.6
2019-05-22T12:46:07.268Z,14.6
2019-05-22T12:51:12.246Z,14.5
2019-05-22T12:56:22.508Z,14.3
2019-05-22T13:01:32.229Z,14.6
2019-05-22T13:06:37.284Z,14.5
2019-05-22T13:11:42.292Z,14.5
2019-05-22T13:16:48.964Z,14.5
2019-05-22T13:21:52.398Z,14.6
2019-05-22T13:27:02.221Z,14.4
2019-05-22T13:32:12.295Z,14.2
2019-05-22T13:37:17.220Z,14.2
2019-05-22T13:42:22.287Z,14.3
2019-05-22T13:47:27.308Z,14.4
2019-05-22T13:52:32.271Z,14.4
2019-05-22T13:57:42.210Z,14.2
2019-05-22T14:02:52.241Z,14.2
2019-05-22T14:07:57.226Z,14.3
2019-05-22T14:13:02.330Z,14.2
2019-05-22T14:18:07.228Z,14.1
2019-05-22T14:23:12.271Z,14
2019-05-22T14:28:17.270Z,14.1
2019-05-22T14:33:22.245Z,14
2019-05-22T14:38:27.273Z,14
2019-05-22T14:43:32.242Z,14.1
2019-05-22T14:48:37.176Z,14.1
2019-05-22T14:53:42.194Z,14.2
2019-05-22T14:58:47.499Z,14.2
2019-05-22T15:03:52.220Z,14.3
2019-05-22T15:09:02.261Z,14.4
2019-05-22T15:14:12.203Z,14.3
2019-05-22T15:19:17.189Z,14.2
2019-05-22T15:24:22.169Z,14.2
2019-05-22T15:29:27.137Z,14.1
2019-05-22T15:34:32.254Z,14.1
2019-05-22T15:39:42.158Z,14.2
2019-05-22T15:44:52.142Z,14.1
2019-05-22T15:54:52.429Z,14.3
2019-05-22T15:59:57.398Z,14.2
2019-05-22T16:05:02.403Z,14.2
2019-05-22T16:10:12.332Z,14.3
2019-05-22T16:15:22.339Z,14.4
2019-05-22T16:20:27.382Z,14.5
2019-05-22T16:25:32.354Z,14.4
2019-05-22T16:30:37.319Z,14.4
2019-05-22T16:35:42.337Z,14.4
2019-05-22T16:40:52.406Z,14.3
2019-05-22T16:46:02.370Z,14.4
2019-05-22T16:51:07.282Z,14.4
2019-05-22T16:56:12.296Z,14.4
2019-05-22T17:01:17.367Z,14.4
2019-05-22T17:06:22.595Z,14.7
2019-05-22T17:11:32.342Z,14.6
2019-05-22T17:16:42.615Z,14.5
2019-05-22T17:21:47.310Z,14.4
2019-05-22T17:26:52.283Z,14.3
2019-05-22T17:31:57.407Z,14.4
2019-05-22T17:37:02.279Z,14.4
2019-05-22T17:47:06.018Z,14.4
2019-05-22T17:52:07.492Z,14.4
2019-05-22T17:57:12.584Z,14.5
2019-05-22T18:02:22.554Z,14.3
2019-05-22T18:07:32.677Z,14.4
2019-05-22T18:12:37.548Z,14.6
2019-05-22T18:17:42.566Z,14.8
2019-05-22T18:22:47.562Z,14.6
2019-05-22T18:27:52.579Z,14.5
2019-05-22T18:33:02.644Z,14.5
2019-05-22T18:38:12.542Z,14.5
2019-05-22T18:43:18.899Z,14.4
2019-05-22T18:48:22.504Z,14.4
2019-05-22T18:53:27.516Z,14.4
2019-05-22T18:58:32.547Z,14.4
2019-05-22T19:03:37.528Z,14.3
2019-05-22T19:08:42.727Z,14.3
2019-05-22T19:13:47.469Z,14.3
2019-05-22T19:18:52.503Z,14.4
2019-05-22T19:23:57.472Z,14.3
2019-05-22T19:29:02.535Z,14.3
2019-05-22T19:34:07.549Z,14.2
2019-05-22T19:39:12.500Z,14.2
2019-05-22T19:44:22.502Z,14.2
2019-05-22T19:49:32.469Z,14.3
2019-05-22T19:54:37.441Z,14.2
2019-05-22T19:59:42.545Z,14.2
2019-05-22T20:04:47.485Z,14.2
2019-05-22T20:09:52.457Z,14.2
2019-05-22T20:15:02.532Z,14.1
2019-05-22T20:20:12.471Z,14
2019-05-22T20:25:17.494Z,14
2019-05-22T20:30:22.453Z,13.9
2019-05-22T20:35:27.420Z,14
2019-05-22T20:40:32.452Z,13.9
2019-05-22T20:45:42.482Z,13.9
2019-05-22T20:50:52.439Z,13.9
2019-05-22T20:55:57.440Z,13.9
2019-05-22T21:05:57.669Z,13.9
2019-05-22T21:11:02.648Z,13.9
2019-05-22T21:16:07.874Z,13.8
2019-05-22T21:21:17.660Z,14
2019-05-22T21:26:27.649Z,13.7
2019-05-22T21:31:32.650Z,13.8
2019-05-22T21:36:37.626Z,13.7
2019-05-22T21:41:42.622Z,13.7
2019-05-22T21:46:47.623Z,13.8
2019-05-22T21:51:57.642Z,13.8
2019-05-22T21:57:07.601Z,13.6
2019-05-22T22:02:12.632Z,13.7
2019-05-22T22:07:17.645Z,13.6
2019-05-22T22:12:22.660Z,13.6
2019-05-22T22:17:27.685Z,13.6
2019-05-22T22:22:32.686Z,13.7
2019-05-22T22:27:42.642Z,13.6
2019-05-22T22:37:47.721Z,13.7
2019-05-22T22:42:52.762Z,13.5
2019-05-22T22:47:57.759Z,13.5
2019-05-22T22:53:07.741Z,13.4
2019-05-22T22:58:17.958Z,13.3
2019-05-22T23:03:22.688Z,13.4
2019-05-22T23:08:27.714Z,13.4
2019-05-22T23:13:32.727Z,13.4
2019-05-22T23:18:37.750Z,13.3
2019-05-22T23:23:47.889Z,13.4
2019-05-22T23:28:57.753Z,13.4
2019-05-22T23:34:02.699Z,13.2
2019-05-22T23:39:07.696Z,13.1
2019-05-22T23:44:12.710Z,13
2019-05-22T23:49:17.731Z,13
2019-05-22T23:54:27.673Z,12.9
2019-05-22T23:59:37.723Z,12.9
